createdAt,value
2022-11-28T00:01:20.459Z,3.62
2022-11-28T00:03:46.831Z,3.62
2022-11-28T00:06:13.254Z,3.64
2022-11-28T00:08:39.632Z,3.64
2022-11-28T00:11:05.963Z,3.65
2022-11-28T00:13:32.293Z,3.68
2022-11-28T00:15:58.668Z,3.66
2022-11-28T00:18:25.013Z,3.62
2022-11-28T00:20:51.335Z,3.60
2022-11-28T00:23:17.646Z,3.68
2022-11-28T00:25:43.978Z,3.64
2022-11-28T00:28:10.290Z,3.51
2022-11-28T00:30:36.831Z,3.60
2022-11-28T00:33:03.138Z,3.67
2022-11-28T00:35:29.446Z,3.65
2022-11-28T00:37:55.776Z,3.55
2022-11-28T00:40:22.077Z,3.48
2022-11-28T00:42:48.429Z,3.47
2022-11-28T00:45:14.789Z,3.52
2022-11-28T00:47:41.140Z,3.51
2022-11-28T00:50:07.459Z,3.45
2022-11-28T00:52:33.807Z,3.51
2022-11-28T00:55:00.163Z,3.55
2022-11-28T00:57:26.475Z,3.57
2022-11-28T00:59:52.806Z,3.57
2022-11-28T01:02:19.223Z,3.59
2022-11-28T01:04:45.638Z,3.49
2022-11-28T01:07:12.005Z,3.51
2022-11-28T01:09:38.340Z,3.56
2022-11-28T01:12:04.645Z,3.56
2022-11-28T01:14:31.026Z,3.55
2022-11-28T01:16:57.449Z,3.48
2022-11-28T01:19:23.849Z,3.59
2022-11-28T01:21:50.261Z,3.52
2022-11-28T01:24:16.670Z,3.50
2022-11-28T01:26:43.008Z,3.60
2022-11-28T01:29:09.332Z,3.54
2022-11-28T01:31:35.878Z,3.55
2022-11-28T01:34:02.251Z,3.56
2022-11-28T01:36:28.579Z,3.53
2022-11-28T01:38:54.902Z,3.53
2022-11-28T01:41:21.237Z,3.50
2022-11-28T01:43:47.550Z,3.47
2022-11-28T01:46:13.908Z,3.48
2022-11-28T01:48:40.258Z,3.49
2022-11-28T01:51:06.578Z,3.41
2022-11-28T01:53:33.038Z,3.33
2022-11-28T01:55:59.392Z,3.36
2022-11-28T01:58:25.780Z,3.39
2022-11-28T02:00:52.185Z,3.32
2022-11-28T02:03:18.525Z,3.31
2022-11-28T02:05:44.885Z,3.38
2022-11-28T02:08:11.302Z,3.25
2022-11-28T02:10:37.632Z,3.18
2022-11-28T02:13:03.932Z,3.19
2022-11-28T02:15:30.343Z,3.23
2022-11-28T02:17:56.691Z,3.20
2022-11-28T02:20:23.016Z,3.05
2022-11-28T02:22:49.334Z,3.09
2022-11-28T02:25:15.915Z,3.09
2022-11-28T02:27:42.250Z,3.06
2022-11-28T02:30:08.585Z,3.14
2022-11-28T02:32:34.979Z,3.15
2022-11-28T02:35:01.313Z,3.15
2022-11-28T02:37:27.625Z,3.14
2022-11-28T02:39:53.990Z,3.05
2022-11-28T02:42:20.309Z,3.04
2022-11-28T02:44:46.627Z,3.06
2022-11-28T02:47:12.993Z,3.00
2022-11-28T02:49:39.356Z,3.11
2022-11-28T02:52:05.716Z,3.07
2022-11-28T02:54:32.621Z,3.04
2022-11-28T02:56:58.943Z,3.07
2022-11-28T02:59:25.253Z,3.05
2022-11-28T03:01:51.807Z,3.06
2022-11-28T03:04:18.157Z,3.11
2022-11-28T03:06:44.614Z,3.04
2022-11-28T03:09:10.987Z,2.98
2022-11-28T03:11:37.303Z,2.94
2022-11-28T03:14:03.614Z,2.97
2022-11-28T03:16:30.100Z,2.98
2022-11-28T03:18:56.458Z,2.97
2022-11-28T03:21:22.774Z,2.91
2022-11-28T03:23:49.098Z,2.97
2022-11-28T03:26:15.415Z,2.92
2022-11-28T03:28:43.763Z,2.93
2022-11-28T03:31:10.312Z,2.93
2022-11-28T03:33:36.663Z,2.90
2022-11-28T03:36:03.009Z,2.92
2022-11-28T03:38:29.319Z,2.94
2022-11-28T03:40:55.634Z,2.95
2022-11-28T03:43:21.977Z,2.93
2022-11-28T03:45:48.319Z,2.93
2022-11-28T03:48:14.676Z,2.93
2022-11-28T03:50:41.009Z,2.87
2022-11-28T03:53:07.331Z,2.80
2022-11-28T03:55:33.707Z,2.80
2022-11-28T03:58:00.076Z,2.84
2022-11-28T04:00:26.451Z,2.88
2022-11-28T04:02:52.882Z,2.81
2022-11-28T04:05:19.246Z,2.85
2022-11-28T04:07:45.626Z,2.74
2022-11-28T04:10:12.029Z,2.78
2022-11-28T04:12:38.470Z,2.66
2022-11-28T04:15:04.792Z,2.68
2022-11-28T04:17:31.081Z,2.70
2022-11-28T04:19:57.406Z,2.64
2022-11-28T04:22:23.717Z,2.64
2022-11-28T04:24:50.024Z,2.69
2022-11-28T04:27:16.378Z,2.60
2022-11-28T04:29:42.696Z,2.66
2022-11-28T04:32:09.009Z,2.60
2022-11-28T04:34:35.346Z,2.53
2022-11-28T04:37:05.482Z,2.61
2022-11-28T04:39:34.859Z,2.66
2022-11-28T04:42:01.195Z,2.68
2022-11-28T04:44:27.531Z,2.60
2022-11-28T04:46:54.009Z,2.58
2022-11-28T04:49:20.324Z,2.61
2022-11-28T04:51:46.780Z,2.60
2022-11-28T04:54:13.099Z,2.64
2022-11-28T04:56:39.466Z,2.61
2022-11-28T04:59:06.142Z,2.62
2022-11-28T05:01:32.560Z,2.59
2022-11-28T05:03:58.881Z,2.69
2022-11-28T05:06:25.232Z,2.65
2022-11-28T05:08:51.552Z,2.70
2022-11-28T05:11:17.875Z,2.73
2022-11-28T05:13:44.862Z,2.75
2022-11-28T05:16:11.236Z,2.78
2022-11-28T05:18:37.589Z,2.73
2022-11-28T05:21:06.783Z,2.77
2022-11-28T05:23:33.136Z,2.78
2022-11-28T05:25:59.441Z,2.75
2022-11-28T05:28:25.788Z,2.81
2022-11-28T05:30:52.087Z,2.80
2022-11-28T05:33:18.417Z,2.88
2022-11-28T05:35:44.720Z,2.92
2022-11-28T05:38:13.661Z,2.88
2022-11-28T05:40:44.496Z,2.90
2022-11-28T05:43:10.914Z,2.96
2022-11-28T05:45:37.311Z,2.92
2022-11-28T05:48:03.703Z,2.92
2022-11-28T05:50:30.023Z,3.02
2022-11-28T05:52:56.354Z,3.08
2022-11-28T05:55:22.744Z,3.05
2022-11-28T05:57:49.133Z,3.05
2022-11-28T06:00:15.453Z,3.03
2022-11-28T06:02:41.778Z,3.12
2022-11-28T06:05:27.670Z,3.11
2022-11-28T06:07:54.421Z,3.08
2022-11-28T06:10:22.580Z,3.20
2022-11-28T06:12:48.907Z,3.19
2022-11-28T06:15:15.217Z,3.15
2022-11-28T06:17:41.529Z,3.23
2022-11-28T06:20:08.759Z,3.21
2022-11-28T06:22:35.078Z,3.29
2022-11-28T06:25:01.439Z,3.31
2022-11-28T06:27:27.808Z,3.36
2022-11-28T06:29:54.117Z,3.30
2022-11-28T06:32:22.162Z,3.42
2022-11-28T06:34:48.685Z,3.40
2022-11-28T06:37:15.007Z,3.40
2022-11-28T06:39:41.632Z,3.47
2022-11-28T06:42:08.152Z,3.43
2022-11-28T06:44:34.529Z,3.51
2022-11-28T06:47:00.832Z,3.53
2022-11-28T06:49:27.176Z,3.51
2022-11-28T06:51:53.485Z,3.49
2022-11-28T06:54:20.043Z,3.56
2022-11-28T06:56:46.440Z,3.54
2022-11-28T06:59:13.114Z,3.56
2022-11-28T07:01:39.510Z,3.55
2022-11-28T07:04:05.896Z,3.65
2022-11-28T07:06:32.222Z,3.59
2022-11-28T07:08:58.541Z,3.61
2022-11-28T07:11:24.896Z,3.64
2022-11-28T07:13:51.490Z,3.67
2022-11-28T07:16:17.810Z,3.68
2022-11-28T07:18:44.226Z,3.70
2022-11-28T07:21:10.610Z,3.64
2022-11-28T07:23:37.238Z,3.71
2022-11-28T07:26:03.556Z,3.74
2022-11-28T07:28:29.941Z,3.73
2022-11-28T07:30:56.288Z,3.78
2022-11-28T07:33:22.602Z,3.78
2022-11-28T07:35:48.916Z,3.75
2022-11-28T07:38:15.235Z,3.81
2022-11-28T07:40:41.837Z,3.81
2022-11-28T07:43:08.147Z,3.87
2022-11-28T07:45:58.958Z,3.83
2022-11-28T07:48:20.894Z,3.84
2022-11-28T07:50:47.256Z,3.88
2022-11-28T07:53:13.558Z,3.92
2022-11-28T07:55:39.919Z,3.95
2022-11-28T07:58:06.287Z,3.90
2022-11-28T08:00:32.616Z,3.95
2022-11-28T08:02:58.949Z,3.97
2022-11-28T08:05:25.290Z,4.03
2022-11-28T08:07:51.720Z,3.96
2022-11-28T08:10:18.076Z,3.93
2022-11-28T08:12:44.419Z,3.99
2022-11-28T08:15:10.744Z,3.99
2022-11-28T08:17:37.066Z,4.01
2022-11-28T08:20:03.393Z,4.00
2022-11-28T08:22:29.706Z,4.12
2022-11-28T08:24:56.030Z,4.10
2022-11-28T08:27:22.364Z,4.11
2022-11-28T08:29:52.044Z,4.22
2022-11-28T08:32:20.469Z,4.19
2022-11-28T08:34:46.821Z,4.27
2022-11-28T08:37:13.174Z,4.22
2022-11-28T08:39:39.481Z,4.30
2022-11-28T08:42:05.780Z,4.47
2022-11-28T08:44:32.114Z,4.36
2022-11-28T08:46:58.463Z,4.44
2022-11-28T08:49:24.798Z,4.41
2022-11-28T08:51:51.120Z,4.45
2022-11-28T08:54:17.448Z,4.60
2022-11-28T08:56:45.354Z,4.60
2022-11-28T08:59:11.672Z,4.42
2022-11-28T09:01:39.671Z,4.44
2022-11-28T09:04:06.110Z,4.52
2022-11-28T09:06:32.526Z,4.55
2022-11-28T09:08:58.883Z,4.52
2022-11-28T09:11:25.228Z,4.61
2022-11-28T09:13:51.577Z,4.58
2022-11-28T09:16:17.986Z,4.63
2022-11-28T09:18:44.541Z,4.58
2022-11-28T09:21:11.675Z,4.57
2022-11-28T09:23:38.064Z,4.70
2022-11-28T09:26:04.397Z,4.55
2022-11-28T09:28:30.746Z,4.69
2022-11-28T09:30:57.118Z,4.64
2022-11-28T09:33:23.610Z,4.75
2022-11-28T09:35:49.918Z,4.83
2022-11-28T09:38:16.353Z,4.70
2022-11-28T09:40:42.665Z,4.81
2022-11-28T09:43:08.982Z,4.89
2022-11-28T09:45:36.351Z,4.78
2022-11-28T09:48:02.654Z,4.91
2022-11-28T09:50:28.990Z,4.83
2022-11-28T09:52:55.408Z,4.81
2022-11-28T09:55:21.842Z,4.82
2022-11-28T09:57:48.251Z,4.88
2022-11-28T10:00:17.704Z,4.91
2022-11-28T10:02:44.093Z,4.92
2022-11-28T10:05:10.476Z,4.80
2022-11-28T10:07:36.912Z,4.97
2022-11-28T10:10:03.281Z,4.90
2022-11-28T10:12:29.652Z,4.81
2022-11-28T10:14:55.970Z,4.87
2022-11-28T10:17:22.338Z,4.98
2022-11-28T10:19:55.896Z,4.96
2022-11-28T10:22:22.353Z,4.86
2022-11-28T10:24:48.683Z,4.84
2022-11-28T10:27:15.075Z,4.84
2022-11-28T10:29:41.763Z,4.88
2022-11-28T10:32:08.360Z,5.04
2022-11-28T10:34:34.680Z,5.00
2022-11-28T10:37:01.408Z,5.01
2022-11-28T10:39:27.713Z,5.01
2022-11-28T10:42:11.752Z,5.01
2022-11-28T10:44:38.119Z,5.05
2022-11-28T10:47:04.472Z,5.10
2022-11-28T10:49:30.854Z,5.20
2022-11-28T10:51:57.239Z,5.11
2022-11-28T10:54:23.549Z,5.24
2022-11-28T10:56:49.868Z,5.24
2022-11-28T10:59:16.667Z,5.14
2022-11-28T11:01:47.348Z,5.06
2022-11-28T11:04:16.455Z,5.20
2022-11-28T11:07:06.809Z,5.22
2022-11-28T11:09:29.318Z,5.20
2022-11-28T11:11:55.633Z,5.24
2022-11-28T11:14:21.956Z,5.19
2022-11-28T11:16:48.770Z,5.29
2022-11-28T11:19:15.184Z,5.29
2022-11-28T11:21:41.515Z,5.35
2022-11-28T11:24:07.922Z,5.36
2022-11-28T11:26:34.256Z,5.45
2022-11-28T11:29:01.505Z,5.51
2022-11-28T11:31:27.940Z,5.50
2022-11-28T11:33:54.381Z,5.48
2022-11-28T11:36:21.375Z,5.51
2022-11-28T11:38:47.694Z,5.46
2022-11-28T11:41:14.001Z,5.40
2022-11-28T11:43:40.418Z,5.45
2022-11-28T11:46:06.805Z,5.49
2022-11-28T11:48:33.146Z,5.53
2022-11-28T11:50:59.465Z,5.46
2022-11-28T11:53:25.790Z,5.50
2022-11-28T11:55:52.113Z,5.59
2022-11-28T11:58:18.435Z,5.57
2022-11-28T12:00:45.843Z,5.53
2022-11-28T12:03:12.295Z,5.60
2022-11-28T12:06:06.138Z,5.59
2022-11-28T12:08:25.237Z,5.60
2022-11-28T12:10:51.549Z,5.75
2022-11-28T12:13:17.886Z,5.68
2022-11-28T12:15:44.312Z,5.64
2022-11-28T12:18:10.703Z,5.54
2022-11-28T12:20:37.131Z,5.48
2022-11-28T12:23:03.576Z,5.45
2022-11-28T12:25:29.922Z,5.49
2022-11-28T12:27:56.587Z,5.53
2022-11-28T12:30:23.004Z,5.61
2022-11-28T12:32:49.481Z,5.52
2022-11-28T12:35:15.867Z,5.57
2022-11-28T12:38:09.761Z,5.67
2022-11-28T12:40:28.547Z,5.57
2022-11-28T12:42:54.927Z,5.50
2022-11-28T12:45:21.278Z,5.52
2022-11-28T12:47:47.632Z,5.56
2022-11-28T12:50:13.983Z,5.55
2022-11-28T12:52:40.349Z,5.56
2022-11-28T12:55:06.697Z,5.49
2022-11-28T12:57:33.569Z,5.55
2022-11-28T13:00:05.032Z,5.48
2022-11-28T13:02:34.748Z,5.41
2022-11-28T13:05:01.260Z,5.44
2022-11-28T13:07:27.651Z,5.55
2022-11-28T13:09:54.024Z,5.64
2022-11-28T13:12:20.430Z,5.61
2022-11-28T13:14:46.987Z,5.70
2022-11-28T13:17:13.604Z,5.67
2022-11-28T13:19:39.963Z,5.63
2022-11-28T13:22:06.356Z,5.64
2022-11-28T13:24:32.708Z,5.63
2022-11-28T13:27:00.419Z,5.68
2022-11-28T13:29:27.009Z,5.62
2022-11-28T13:31:56.133Z,5.65
2022-11-28T13:34:26.736Z,5.61
2022-11-28T13:39:40.323Z,5.56
2022-11-28T13:42:28.776Z,5.56
2022-11-28T13:44:52.984Z,5.52
2022-11-28T13:47:19.299Z,5.29
2022-11-28T13:49:45.608Z,5.48
2022-11-28T13:52:11.943Z,5.32
2022-11-28T13:54:38.390Z,5.35
2022-11-28T13:57:04.784Z,5.38
2022-11-28T13:59:31.105Z,5.27
2022-11-28T14:01:57.487Z,5.16
2022-11-28T14:04:23.863Z,5.24
2022-11-28T14:06:52.218Z,5.26
2022-11-28T14:09:19.163Z,5.32
2022-11-28T14:11:46.703Z,5.22
2022-11-28T14:14:13.274Z,5.30
2022-11-28T14:16:39.762Z,5.19
2022-11-28T14:19:06.871Z,5.23
2022-11-28T14:21:33.227Z,5.07
2022-11-28T14:23:59.566Z,5.07
2022-11-28T14:26:29.156Z,5.09
2022-11-28T14:28:55.466Z,5.11
2022-11-28T14:31:21.848Z,5.08
2022-11-28T14:33:48.233Z,5.08
2022-11-28T14:36:14.690Z,5.07
2022-11-28T14:38:41.022Z,5.07
2022-11-28T14:41:09.220Z,5.13
2022-11-28T14:43:35.588Z,5.06
2022-11-28T14:46:01.911Z,5.10
2022-11-28T14:48:29.051Z,4.95
2022-11-28T14:51:01.373Z,5.03
2022-11-28T14:53:28.334Z,4.98
2022-11-28T14:55:58.133Z,4.97
2022-11-28T14:58:24.482Z,4.90
2022-11-28T15:00:50.859Z,4.99
2022-11-28T15:03:17.352Z,4.99
2022-11-28T15:05:43.809Z,5.00
2022-11-28T15:08:10.183Z,4.94
2022-11-28T15:10:36.662Z,5.00
2022-11-28T15:13:03.165Z,4.90
2022-11-28T15:15:29.793Z,4.87
2022-11-28T15:17:56.177Z,4.88
2022-11-28T15:20:22.589Z,4.94
2022-11-28T15:22:49.374Z,4.89
2022-11-28T15:25:15.690Z,4.88
2022-11-28T15:27:41.997Z,4.93
2022-11-28T15:30:08.462Z,4.84
2022-11-28T15:32:34.762Z,4.88
2022-11-28T15:35:01.222Z,5.02
2022-11-28T15:37:27.573Z,4.88
2022-11-28T15:39:53.962Z,4.86
2022-11-28T15:42:20.283Z,4.92
2022-11-28T15:44:46.628Z,4.88
2022-11-28T15:47:12.952Z,4.89
2022-11-28T15:49:41.181Z,4.96
2022-11-28T15:52:07.504Z,4.87
2022-11-28T15:54:33.859Z,4.88
2022-11-28T15:57:00.175Z,4.91
2022-11-28T15:59:26.489Z,4.84
2022-11-28T16:01:57.826Z,4.87
2022-11-28T16:04:25.994Z,4.89
2022-11-28T16:06:52.333Z,4.83
2022-11-28T16:09:18.654Z,4.90
2022-11-28T16:11:44.973Z,4.82
2022-11-28T16:14:11.344Z,4.91
2022-11-28T16:16:37.788Z,4.91
2022-11-28T16:19:04.203Z,4.84
2022-11-28T16:21:30.571Z,4.80
2022-11-28T16:23:57.067Z,4.81
2022-11-28T16:26:23.412Z,4.89
2022-11-28T16:28:49.822Z,4.81
2022-11-28T16:31:16.313Z,4.90
2022-11-28T16:33:42.710Z,4.79
2022-11-28T16:36:09.027Z,4.86
2022-11-28T16:38:35.334Z,4.92
2022-11-28T16:41:01.724Z,4.90
2022-11-28T16:43:28.062Z,4.88
2022-11-28T16:45:54.425Z,4.84
2022-11-28T16:48:21.817Z,4.79
2022-11-28T16:50:48.137Z,4.80
2022-11-28T16:53:14.478Z,4.84
2022-11-28T16:55:40.853Z,4.80
2022-11-28T16:58:07.515Z,4.96
2022-11-28T17:00:33.837Z,4.80
2022-11-28T17:03:00.189Z,4.93
2022-11-28T17:05:26.514Z,4.88
2022-11-28T17:07:52.858Z,4.74
2022-11-28T17:10:19.195Z,4.91
2022-11-28T17:12:45.503Z,4.90
2022-11-28T17:15:11.836Z,4.90
2022-11-28T17:17:38.158Z,4.90
2022-11-28T17:20:04.469Z,4.91
2022-11-28T17:22:31.160Z,4.78
2022-11-28T17:24:59.260Z,4.84
2022-11-28T17:27:25.576Z,4.83
2022-11-28T17:29:52.175Z,4.93
2022-11-28T17:32:18.495Z,4.87
2022-11-28T17:34:46.227Z,4.86
2022-11-28T17:37:15.273Z,4.83
2022-11-28T17:40:01.609Z,4.84
2022-11-28T17:42:27.950Z,4.87
2022-11-28T17:44:54.304Z,4.91
2022-11-28T17:47:20.623Z,4.89
2022-11-28T17:49:47.006Z,4.92
2022-11-28T17:52:13.445Z,4.94
2022-11-28T17:54:39.783Z,4.98
2022-11-28T17:57:06.103Z,4.90
2022-11-28T17:59:34.378Z,4.96
2022-11-28T18:02:00.782Z,4.92
2022-11-28T18:04:27.150Z,4.85
2022-11-28T18:06:53.593Z,4.92
2022-11-28T18:09:20.051Z,4.95
2022-11-28T18:11:46.852Z,4.98
2022-11-28T18:14:13.175Z,5.00
2022-11-28T18:16:44.063Z,5.04
2022-11-28T18:19:10.559Z,4.98
2022-11-28T18:21:36.897Z,5.04
2022-11-28T18:24:04.756Z,4.95
2022-11-28T18:26:31.060Z,4.94
2022-11-28T18:28:57.416Z,4.96
2022-11-28T18:31:23.783Z,5.02
2022-11-28T18:33:50.162Z,5.00
2022-11-28T18:36:16.488Z,5.06
2022-11-28T18:38:44.808Z,5.10
2022-11-28T18:41:11.315Z,5.05
2022-11-28T18:43:37.655Z,5.15
2022-11-28T18:46:08.052Z,5.05
2022-11-28T18:48:34.502Z,5.11
2022-11-28T18:51:00.969Z,5.10
2022-11-28T18:53:27.351Z,5.11
2022-11-28T18:55:53.671Z,5.11
2022-11-28T18:58:19.997Z,5.08
2022-11-28T19:00:46.345Z,5.14
2022-11-28T19:03:12.710Z,5.13
2022-11-28T19:05:39.444Z,5.11
2022-11-28T19:08:05.876Z,5.14
2022-11-28T19:10:32.194Z,5.17
2022-11-28T19:12:58.557Z,5.10
2022-11-28T19:15:24.879Z,5.14
2022-11-28T19:17:51.322Z,5.17
2022-11-28T19:20:18.400Z,5.13
2022-11-28T19:22:44.885Z,5.17
2022-11-28T19:25:11.205Z,5.13
2022-11-28T19:27:37.590Z,5.21
2022-11-28T19:30:03.906Z,5.17
2022-11-28T19:32:30.298Z,5.10
2022-11-28T19:34:56.716Z,5.20
2022-11-28T19:37:23.054Z,5.20
2022-11-28T19:39:49.371Z,5.22
2022-11-28T19:42:16.381Z,5.11
2022-11-28T19:44:42.695Z,5.16
2022-11-28T19:47:09.118Z,5.17
2022-11-28T19:49:35.492Z,5.19
2022-11-28T19:52:01.802Z,5.04
2022-11-28T19:54:28.209Z,5.01
2022-11-28T19:56:54.616Z,5.07
2022-11-28T19:59:20.961Z,5.12
2022-11-28T20:01:49.992Z,5.03
2022-11-28T20:04:16.505Z,5.04
2022-11-28T20:06:42.857Z,5.07
2022-11-28T20:09:09.224Z,4.96
2022-11-28T20:11:35.586Z,5.01
2022-11-28T20:14:01.936Z,5.03
2022-11-28T20:16:28.305Z,4.89
2022-11-28T20:18:54.791Z,4.94
2022-11-28T20:21:21.401Z,4.98
2022-11-28T20:23:47.742Z,4.86
2022-11-28T20:26:14.076Z,4.97
2022-11-28T20:28:40.383Z,4.84
2022-11-28T20:31:06.833Z,4.87
2022-11-28T20:33:33.135Z,4.94
2022-11-28T20:36:00.060Z,4.87
2022-11-28T20:38:26.425Z,4.90
2022-11-28T20:40:52.961Z,4.77
2022-11-28T20:43:19.306Z,4.85
2022-11-28T20:45:45.684Z,4.96
2022-11-28T20:48:12.021Z,4.90
2022-11-28T20:50:38.329Z,4.95
2022-11-28T20:53:04.667Z,4.92
2022-11-28T20:55:30.978Z,4.95
2022-11-28T20:57:57.299Z,4.97
2022-11-28T21:00:26.707Z,4.90
2022-11-28T21:02:53.319Z,4.98
2022-11-28T21:05:19.900Z,4.99
2022-11-28T21:07:46.480Z,5.00
2022-11-28T21:10:12.825Z,5.05
2022-11-28T21:12:39.139Z,5.12
2022-11-28T21:15:05.475Z,5.08
2022-11-28T21:17:32.867Z,5.08
2022-11-28T21:19:59.194Z,5.07
2022-11-28T21:22:25.511Z,5.01
2022-11-28T21:24:51.878Z,5.06
2022-11-28T21:27:18.215Z,5.06
2022-11-28T21:29:45.738Z,5.05
2022-11-28T21:32:13.691Z,5.10
2022-11-28T21:34:40.056Z,5.13
2022-11-28T21:37:06.378Z,5.16
2022-11-28T21:39:32.904Z,5.22
2022-11-28T21:41:59.206Z,5.20
2022-11-28T21:44:25.525Z,5.11
2022-11-28T21:46:51.839Z,5.20
2022-11-28T21:49:18.244Z,5.06
2022-11-28T21:51:44.561Z,5.11
2022-11-28T21:54:10.951Z,5.18
2022-11-28T21:56:37.291Z,5.17
2022-11-28T21:59:04.461Z,5.01
2022-11-28T22:01:30.815Z,5.00
2022-11-28T22:04:02.155Z,5.03
2022-11-28T22:06:29.374Z,4.97
2022-11-28T22:08:55.730Z,5.10
2022-11-28T22:11:22.106Z,5.14
2022-11-28T22:13:49.004Z,5.04
2022-11-28T22:16:15.441Z,4.99
2022-11-28T22:18:41.843Z,5.05
2022-11-28T22:21:28.493Z,4.95
2022-11-28T22:23:55.221Z,5.07
2022-11-28T22:26:21.838Z,5.05
2022-11-28T22:28:53.529Z,5.11
2022-11-28T22:31:20.621Z,5.15
2022-11-28T22:33:47.034Z,5.11
2022-11-28T22:36:13.799Z,4.99
2022-11-28T22:38:40.116Z,5.06
2022-11-28T22:41:06.434Z,5.07
2022-11-28T22:43:32.751Z,4.96
2022-11-28T22:45:59.176Z,5.00
2022-11-28T22:48:25.627Z,5.00
2022-11-28T22:50:51.988Z,5.08
2022-11-28T22:53:18.318Z,5.01
2022-11-28T22:55:44.656Z,5.06
2022-11-28T22:58:10.971Z,5.03
2022-11-28T23:00:37.394Z,5.09
2022-11-28T23:03:03.847Z,5.10
2022-11-28T23:05:30.238Z,5.08
2022-11-28T23:07:56.638Z,5.14
2022-11-28T23:10:23.021Z,5.07
2022-11-28T23:12:49.432Z,5.09
2022-11-28T23:15:15.845Z,5.08
2022-11-28T23:17:42.256Z,5.07
2022-11-28T23:20:08.566Z,5.09
2022-11-28T23:22:35.863Z,5.09
2022-11-28T23:25:02.161Z,5.10
2022-11-28T23:27:28.488Z,5.04
2022-11-28T23:29:54.859Z,5.14
2022-11-28T23:32:21.176Z,5.19
2022-11-28T23:34:50.559Z,5.07
2022-11-28T23:37:16.885Z,5.07
2022-11-28T23:39:43.244Z,5.10
2022-11-28T23:42:09.563Z,5.08
2022-11-28T23:44:35.889Z,5.11
2022-11-28T23:47:02.252Z,5.11
2022-11-28T23:49:28.637Z,5.12
2022-11-28T23:51:54.982Z,5.11
2022-11-28T23:54:21.295Z,5.14
2022-11-28T23:56:47.650Z,5.17
2022-11-28T23:59:14.033Z,5.08
